sensor_id;sensor_type;location;lat;lon;timestamp;pressure;altitude;pressure_sealevel;temperature;humidity
50774;BME280;36745;48.544;8.918;2023-04-25T00:02:18;96729.78;;;7.91;91.36
50774;BME280;36745;48.544;8.918;2023-04-25T00:05:38;96728.56;;;7.80;92.75
50774;BME280;36745;48.544;8.918;2023-04-25T00:08:58;96734.81;;;7.80;93.49
50774;BME280;36745;48.544;8.918;2023-04-25T00:12:18;96742.25;;;7.67;93.63
50774;BME280;36745;48.544;8.918;2023-04-25T00:15:38;96753.44;;;7.60;94.61
50774;BME280;36745;48.544;8.918;2023-04-25T00:18:58;96750.69;;;7.73;93.63
50774;BME280;36745;48.544;8.918;2023-04-25T00:22:18;96752.78;;;7.69;93.79
50774;BME280;36745;48.544;8.918;2023-04-25T00:25:37;96751.47;;;7.73;92.12
50774;BME280;36745;48.544;8.918;2023-04-25T00:28:57;96749.94;;;7.72;92.27
50774;BME280;36745;48.544;8.918;2023-04-25T00:32:17;96755.75;;;7.74;91.75
50774;BME280;36745;48.544;8.918;2023-04-25T00:35:38;96761.78;;;7.69;93.06
50774;BME280;36745;48.544;8.918;2023-04-25T00:38:57;96754.56;;;7.75;92.63
50774;BME280;36745;48.544;8.918;2023-04-25T00:42:17;96747.41;;;7.78;92.29
50774;BME280;36745;48.544;8.918;2023-04-25T00:45:38;96744.38;;;7.76;91.47
50774;BME280;36745;48.544;8.918;2023-04-25T00:48:58;96742.94;;;7.71;92.67
50774;BME280;36745;48.544;8.918;2023-04-25T00:52:18;96735.00;;;7.73;92.93
50774;BME280;36745;48.544;8.918;2023-04-25T00:55:38;96722.50;;;7.72;93.77
50774;BME280;36745;48.544;8.918;2023-04-25T00:58:58;96724.50;;;7.72;93.97
50774;BME280;36745;48.544;8.918;2023-04-25T01:02:18;96717.34;;;7.74;93.48
50774;BME280;36745;48.544;8.918;2023-04-25T01:05:43;96712.75;;;7.71;93.43
50774;BME280;36745;48.544;8.918;2023-04-25T01:09:03;96708.00;;;7.59;93.83
50774;BME280;36745;48.544;8.918;2023-04-25T01:12:24;96718.63;;;7.57;95.00
50774;BME280;36745;48.544;8.918;2023-04-25T01:15:43;96728.06;;;7.56;94.92
50774;BME280;36745;48.544;8.918;2023-04-25T01:19:08;96714.34;;;7.56;95.06
50774;BME280;36745;48.544;8.918;2023-04-25T01:22:31;96715.88;;;7.57;94.94
50774;BME280;36745;48.544;8.918;2023-04-25T01:25:51;96717.84;;;7.56;95.36
50774;BME280;36745;48.544;8.918;2023-04-25T01:29:11;96714.78;;;7.54;95.31
50774;BME280;36745;48.544;8.918;2023-04-25T01:32:31;96717.44;;;7.58;95.32
50774;BME280;36745;48.544;8.918;2023-04-25T01:35:57;96720.75;;;7.66;95.52
50774;BME280;36745;48.544;8.918;2023-04-25T01:39:17;96716.63;;;7.86;93.52
50774;BME280;36745;48.544;8.918;2023-04-25T01:42:40;96720.44;;;7.76;94.54
50774;BME280;36745;48.544;8.918;2023-04-25T01:46:00;96718.81;;;7.91;93.83
50774;BME280;36745;48.544;8.918;2023-04-25T01:49:20;96713.09;;;7.86;93.66
50774;BME280;36745;48.544;8.918;2023-04-25T01:52:40;96702.00;;;7.89;93.15
50774;BME280;36745;48.544;8.918;2023-04-25T01:55:59;96708.13;;;7.68;94.29
50774;BME280;36745;48.544;8.918;2023-04-25T01:59:19;96706.34;;;7.62;94.94
50774;BME280;36745;48.544;8.918;2023-04-25T02:02:41;96713.69;;;7.52;95.08
50774;BME280;36745;48.544;8.918;2023-04-25T02:06:01;96705.66;;;7.45;95.39
50774;BME280;36745;48.544;8.918;2023-04-25T02:09:21;96696.56;;;7.48;94.79
50774;BME280;36745;48.544;8.918;2023-04-25T02:12:41;96693.56;;;7.42;94.68
50774;BME280;36745;48.544;8.918;2023-04-25T02:16:01;96686.00;;;7.34;94.86
50774;BME280;36745;48.544;8.918;2023-04-25T02:19:21;96681.78;;;7.29;94.85
50774;BME280;36745;48.544;8.918;2023-04-25T02:22:41;96694.94;;;7.22;94.99
50774;BME280;36745;48.544;8.918;2023-04-25T02:26:01;96695.13;;;7.14;95.42
50774;BME280;36745;48.544;8.918;2023-04-25T02:29:21;96700.28;;;7.12;94.38
50774;BME280;36745;48.544;8.918;2023-04-25T02:32:41;96702.09;;;7.03;95.61
50774;BME280;36745;48.544;8.918;2023-04-25T02:36:01;96698.56;;;7.02;95.29
50774;BME280;36745;48.544;8.918;2023-04-25T02:39:21;96697.22;;;6.94;95.13
50774;BME280;36745;48.544;8.918;2023-04-25T02:42:41;96692.59;;;6.91;95.42
50774;BME280;36745;48.544;8.918;2023-04-25T02:46:01;96696.22;;;6.88;96.01
50774;BME280;36745;48.544;8.918;2023-04-25T02:49:21;96689.88;;;6.75;96.32
50774;BME280;36745;48.544;8.918;2023-04-25T02:52:41;96686.81;;;6.73;96.65
50774;BME280;36745;48.544;8.918;2023-04-25T02:56:01;96685.63;;;6.74;96.39
50774;BME280;36745;48.544;8.918;2023-04-25T02:59:20;96678.50;;;6.77;96.19
50774;BME280;36745;48.544;8.918;2023-04-25T03:02:40;96681.34;;;6.73;96.17
50774;BME280;36745;48.544;8.918;2023-04-25T03:06:00;96673.38;;;6.79;96.55
50774;BME280;36745;48.544;8.918;2023-04-25T03:09:19;96674.97;;;6.92;96.02
50774;BME280;36745;48.544;8.918;2023-04-25T03:12:39;96668.97;;;6.97;95.93
50774;BME280;36745;48.544;8.918;2023-04-25T03:15:59;96669.16;;;6.90;96.27
50774;BME280;36745;48.544;8.918;2023-04-25T03:19:19;96669.00;;;6.81;96.01
50774;BME280;36745;48.544;8.918;2023-04-25T03:22:39;96665.94;;;6.79;96.47
50774;BME280;36745;48.544;8.918;2023-04-25T03:25:59;96667.81;;;6.82;96.59
50774;BME280;36745;48.544;8.918;2023-04-25T03:29:19;96660.97;;;6.74;96.48
50774;BME280;36745;48.544;8.918;2023-04-25T03:32:43;96664.13;;;6.72;96.84
50774;BME280;36745;48.544;8.918;2023-04-25T03:36:03;96663.19;;;6.79;97.04
50774;BME280;36745;48.544;8.918;2023-04-25T03:39:23;96667.81;;;6.82;97.55
50774;BME280;36745;48.544;8.918;2023-04-25T03:42:43;96657.34;;;6.93;97.06
50774;BME280;36745;48.544;8.918;2023-04-25T03:46:03;96658.88;;;6.94;96.18
50774;BME280;36745;48.544;8.918;2023-04-25T03:49:22;96659.16;;;6.84;96.91
50774;BME280;36745;48.544;8.918;2023-04-25T03:52:43;96664.00;;;6.63;96.71
50774;BME280;36745;48.544;8.918;2023-04-25T03:56:02;96662.03;;;6.64;96.59
50774;BME280;36745;48.544;8.918;2023-04-25T03:59:22;96664.59;;;6.55;96.64
50774;BME280;36745;48.544;8.918;2023-04-25T04:02:42;96657.25;;;6.52;97.35
50774;BME280;36745;48.544;8.918;2023-04-25T04:06:04;96662.38;;;6.50;97.11
50774;BME280;36745;48.544;8.918;2023-04-25T04:09:25;96660.91;;;6.45;97.56
50774;BME280;36745;48.544;8.918;2023-04-25T04:12:45;96672.22;;;6.47;97.73
50774;BME280;36745;48.544;8.918;2023-04-25T04:16:05;96657.56;;;6.54;96.31
50774;BME280;36745;48.544;8.918;2023-04-25T04:19:25;96651.59;;;6.43;95.79
50774;BME280;36745;48.544;8.918;2023-04-25T04:22:45;96659.72;;;6.30;96.77
50774;BME280;36745;48.544;8.918;2023-04-25T04:26:04;96673.16;;;6.24;97.30
50774;BME280;36745;48.544;8.918;2023-04-25T04:29:24;96674.72;;;6.25;97.92
50774;BME280;36745;48.544;8.918;2023-04-25T04:32:51;96670.75;;;6.26;96.61
50774;BME280;36745;48.544;8.918;2023-04-25T04:36:11;96676.41;;;6.19;96.99
50774;BME280;36745;48.544;8.918;2023-04-25T04:39:30;96673.84;;;6.28;98.29
50774;BME280;36745;48.544;8.918;2023-04-25T04:42:50;96671.00;;;6.48;97.14
50774;BME280;36745;48.544;8.918;2023-04-25T04:46:10;96675.38;;;6.62;96.53
50774;BME280;36745;48.544;8.918;2023-04-25T04:49:32;96691.44;;;6.44;96.79
50774;BME280;36745;48.544;8.918;2023-04-25T04:52:52;96695.91;;;6.54;96.70
50774;BME280;36745;48.544;8.918;2023-04-25T04:56:12;96689.75;;;6.50;97.25
50774;BME280;36745;48.544;8.918;2023-04-25T04:59:32;96696.41;;;6.49;97.87
50774;BME280;36745;48.544;8.918;2023-04-25T05:02:51;96687.66;;;6.70;97.09
50774;BME280;36745;48.544;8.918;2023-04-25T05:06:11;96690.59;;;6.79;97.65
50774;BME280;36745;48.544;8.918;2023-04-25T05:09:31;96680.78;;;6.94;96.28
50774;BME280;36745;48.544;8.918;2023-04-25T05:12:51;96683.38;;;6.85;95.77
50774;BME280;36745;48.544;8.918;2023-04-25T05:16:11;96681.84;;;6.84;97.58
50774;BME280;36745;48.544;8.918;2023-04-25T05:19:32;96685.81;;;7.12;96.67
50774;BME280;36745;48.544;8.918;2023-04-25T05:22:52;96681.28;;;7.05;96.43
50774;BME280;36745;48.544;8.918;2023-04-25T05:26:12;96684.94;;;7.15;97.07
50774;BME280;36745;48.544;8.918;2023-04-25T05:29:33;96673.25;;;7.27;97.00
50774;BME280;36745;48.544;8.918;2023-04-25T05:32:53;96676.34;;;7.42;96.08
50774;BME280;36745;48.544;8.918;2023-04-25T05:36:12;96663.00;;;7.56;95.70
50774;BME280;36745;48.544;8.918;2023-04-25T05:39:32;96673.78;;;7.64;95.11
50774;BME280;36745;48.544;8.918;2023-04-25T05:42:52;96684.63;;;7.54;95.46
50774;BME280;36745;48.544;8.918;2023-04-25T05:46:12;96688.06;;;7.71;95.21
50774;BME280;36745;48.544;8.918;2023-04-25T05:49:32;96676.84;;;7.78;93.79
50774;BME280;36745;48.544;8.918;2023-04-25T05:52:52;96670.94;;;7.80;93.03
50774;BME280;36745;48.544;8.918;2023-04-25T05:56:12;96669.06;;;7.89;93.40
50774;BME280;36745;48.544;8.918;2023-04-25T05:59:32;96667.84;;;7.78;92.15
50774;BME280;36745;48.544;8.918;2023-04-25T06:02:52;96681.22;;;7.63;91.28
50774;BME280;36745;48.544;8.918;2023-04-25T06:06:12;96682.34;;;7.78;92.20
50774;BME280;36745;48.544;8.918;2023-04-25T06:09:32;96688.91;;;7.68;91.11
50774;BME280;36745;48.544;8.918;2023-04-25T06:12:52;96682.13;;;7.85;92.33
50774;BME280;36745;48.544;8.918;2023-04-25T06:16:12;96678.53;;;8.01;91.38
50774;BME280;36745;48.544;8.918;2023-04-25T06:19:32;96684.59;;;8.09;91.61
50774;BME280;36745;48.544;8.918;2023-04-25T06:22:52;96673.91;;;7.85;90.43
50774;BME280;36745;48.544;8.918;2023-04-25T06:26:12;96679.81;;;7.84;90.70
50774;BME280;36745;48.544;8.918;2023-04-25T06:29:32;96671.38;;;7.78;90.76
50774;BME280;36745;48.544;8.918;2023-04-25T06:32:52;96690.47;;;7.94;90.33
50774;BME280;36745;48.544;8.918;2023-04-25T06:36:12;96683.88;;;7.79;89.73
50774;BME280;36745;48.544;8.918;2023-04-25T06:39:32;96689.91;;;7.74;89.98
50774;BME280;36745;48.544;8.918;2023-04-25T06:42:52;96700.22;;;7.83;90.16
50774;BME280;36745;48.544;8.918;2023-04-25T06:46:12;96700.16;;;7.86;90.04
50774;BME280;36745;48.544;8.918;2023-04-25T06:49:31;96697.31;;;8.02;90.35
50774;BME280;36745;48.544;8.918;2023-04-25T06:52:51;96691.81;;;8.02;89.26
50774;BME280;36745;48.544;8.918;2023-04-25T06:56:11;96694.03;;;8.08;89.51
50774;BME280;36745;48.544;8.918;2023-04-25T06:59:31;96685.69;;;7.98;89.56
50774;BME280;36745;48.544;8.918;2023-04-25T07:02:52;96688.53;;;8.08;89.73
50774;BME280;36745;48.544;8.918;2023-04-25T07:06:11;96697.31;;;8.28;89.67
50774;BME280;36745;48.544;8.918;2023-04-25T07:09:31;96699.44;;;8.36;89.31
50774;BME280;36745;48.544;8.918;2023-04-25T07:12:58;96697.97;;;8.32;89.80
50774;BME280;36745;48.544;8.918;2023-04-25T07:16:18;96695.56;;;8.34;89.79
50774;BME280;36745;48.544;8.918;2023-04-25T07:19:38;96699.06;;;8.22;90.70
50774;BME280;36745;48.544;8.918;2023-04-25T07:22:59;96696.53;;;8.27;91.39
50774;BME280;36745;48.544;8.918;2023-04-25T07:26:18;96697.78;;;8.39;90.78
50774;BME280;36745;48.544;8.918;2023-04-25T07:29:38;96696.47;;;8.31;91.33
50774;BME280;36745;48.544;8.918;2023-04-25T07:32:58;96698.66;;;8.36;92.16
50774;BME280;36745;48.544;8.918;2023-04-25T07:36:18;96711.63;;;8.35;91.32
50774;BME280;36745;48.544;8.918;2023-04-25T07:39:38;96711.16;;;8.37;91.86
50774;BME280;36745;48.544;8.918;2023-04-25T07:42:57;96706.44;;;8.50;90.85
50774;BME280;36745;48.544;8.918;2023-04-25T07:46:17;96714.13;;;8.42;90.69
50774;BME280;36745;48.544;8.918;2023-04-25T07:49:37;96712.69;;;8.25;90.46
50774;BME280;36745;48.544;8.918;2023-04-25T07:52:57;96730.03;;;8.22;91.06
50774;BME280;36745;48.544;8.918;2023-04-25T07:56:17;96737.50;;;8.22;90.83
50774;BME280;36745;48.544;8.918;2023-04-25T07:59:36;96732.69;;;8.26;90.72
50774;BME280;36745;48.544;8.918;2023-04-25T08:02:56;96742.13;;;8.25;91.55
50774;BME280;36745;48.544;8.918;2023-04-25T08:06:16;96747.28;;;8.23;91.89
50774;BME280;36745;48.544;8.918;2023-04-25T08:09:36;96759.09;;;8.36;91.57
50774;BME280;36745;48.544;8.918;2023-04-25T08:12:56;96758.25;;;8.10;90.73
50774;BME280;36745;48.544;8.918;2023-04-25T08:16:15;96770.53;;;7.93;91.51
50774;BME280;36745;48.544;8.918;2023-04-25T08:19:35;96776.63;;;7.84;90.94
50774;BME280;36745;48.544;8.918;2023-04-25T08:22:55;96786.22;;;7.92;91.85
50774;BME280;36745;48.544;8.918;2023-04-25T08:26:15;96796.31;;;7.95;92.11
50774;BME280;36745;48.544;8.918;2023-04-25T08:29:35;96801.34;;;7.84;92.03
50774;BME280;36745;48.544;8.918;2023-04-25T08:32:54;96803.75;;;7.82;92.43
50774;BME280;36745;48.544;8.918;2023-04-25T08:36:14;96811.66;;;7.80;92.71
50774;BME280;36745;48.544;8.918;2023-04-25T08:39:34;96815.59;;;7.79;92.95
50774;BME280;36745;48.544;8.918;2023-04-25T08:42:55;96829.72;;;7.78;93.08
50774;BME280;36745;48.544;8.918;2023-04-25T08:46:19;96835.31;;;7.74;93.38
50774;BME280;36745;48.544;8.918;2023-04-25T08:49:39;96836.38;;;7.64;93.71
50774;BME280;36745;48.544;8.918;2023-04-25T08:53:04;96840.56;;;7.69;93.40
50774;BME280;36745;48.544;8.918;2023-04-25T08:56:28;96861.59;;;7.59;94.03
50774;BME280;36745;48.544;8.918;2023-04-25T08:59:47;96861.59;;;7.59;94.37
50774;BME280;36745;48.544;8.918;2023-04-25T09:06:29;96873.63;;;7.49;93.80
50774;BME280;36745;48.544;8.918;2023-04-25T09:09:49;96874.47;;;7.46;92.95
50774;BME280;36745;48.544;8.918;2023-04-25T09:13:12;96880.16;;;7.39;93.64
50774;BME280;36745;48.544;8.918;2023-04-25T09:16:32;96889.06;;;7.27;92.96
50774;BME280;36745;48.544;8.918;2023-04-25T09:19:52;96898.13;;;7.07;92.55
50774;BME280;36745;48.544;8.918;2023-04-25T09:23:12;96909.16;;;7.04;92.45
50774;BME280;36745;48.544;8.918;2023-04-25T09:26:31;96906.66;;;6.93;92.30
50774;BME280;36745;48.544;8.918;2023-04-25T09:29:57;96911.34;;;6.77;92.60
50774;BME280;36745;48.544;8.918;2023-04-25T09:33:20;96911.59;;;6.66;92.33
50774;BME280;36745;48.544;8.918;2023-04-25T09:36:40;96920.66;;;6.63;93.06
50774;BME280;36745;48.544;8.918;2023-04-25T09:40:00;96931.94;;;6.65;93.38
50774;BME280;36745;48.544;8.918;2023-04-25T09:43:25;96931.13;;;6.68;93.13
50774;BME280;36745;48.544;8.918;2023-04-25T09:46:49;96936.59;;;6.68;93.28
50774;BME280;36745;48.544;8.918;2023-04-25T09:50:17;96940.44;;;6.70;92.58
50774;BME280;36745;48.544;8.918;2023-04-25T09:53:40;96938.81;;;6.73;92.75
50774;BME280;36745;48.544;8.918;2023-04-25T09:57:10;96946.69;;;6.71;92.54
50774;BME280;36745;48.544;8.918;2023-04-25T10:00:30;96954.72;;;6.62;92.64
50774;BME280;36745;48.544;8.918;2023-04-25T10:03:52;96946.09;;;6.63;92.68
50774;BME280;36745;48.544;8.918;2023-04-25T10:07:14;96958.22;;;6.43;92.83
50774;BME280;36745;48.544;8.918;2023-04-25T10:10:34;96954.50;;;6.33;93.22
50774;BME280;36745;48.544;8.918;2023-04-25T10:13:56;96960.50;;;6.05;93.29
50774;BME280;36745;48.544;8.918;2023-04-25T10:17:15;96961.84;;;6.16;95.83
50774;BME280;36745;48.544;8.918;2023-04-25T10:20:36;96960.03;;;6.49;95.12
50774;BME280;36745;48.544;8.918;2023-04-25T10:24:00;96961.31;;;6.45;93.30
50774;BME280;36745;48.544;8.918;2023-04-25T10:27:20;96966.09;;;6.41;95.12
50774;BME280;36745;48.544;8.918;2023-04-25T10:31:03;96975.44;;;6.63;94.26
50774;BME280;36745;48.544;8.918;2023-04-25T10:38:02;96966.72;;;6.48;92.68
50774;BME280;36745;48.544;8.918;2023-04-25T10:41:23;96962.72;;;6.53;93.71
50774;BME280;36745;48.544;8.918;2023-04-25T10:45:01;96969.59;;;6.61;92.88
50774;BME280;36745;48.544;8.918;2023-04-25T10:51:46;96981.03;;;6.56;93.30
50774;BME280;36745;48.544;8.918;2023-04-25T10:55:06;96982.22;;;6.55;93.55
50774;BME280;36745;48.544;8.918;2023-04-25T10:58:26;96984.84;;;6.62;94.27
50774;BME280;36745;48.544;8.918;2023-04-25T11:01:47;96986.59;;;6.72;93.62
50774;BME280;36745;48.544;8.918;2023-04-25T11:05:10;96992.47;;;6.90;93.40
50774;BME280;36745;48.544;8.918;2023-04-25T11:08:47;96995.81;;;6.98;93.78
50774;BME280;36745;48.544;8.918;2023-04-25T11:12:09;96996.25;;;6.96;93.18
50774;BME280;36745;48.544;8.918;2023-04-25T11:15:30;96996.31;;;6.93;94.02
50774;BME280;36745;48.544;8.918;2023-04-25T11:18:50;97000.25;;;7.11;93.72
50774;BME280;36745;48.544;8.918;2023-04-25T11:22:10;96987.59;;;7.34;93.91
50774;BME280;36745;48.544;8.918;2023-04-25T11:25:30;96987.75;;;7.27;92.19
50774;BME280;36745;48.544;8.918;2023-04-25T11:28:50;96984.66;;;7.25;93.60
50774;BME280;36745;48.544;8.918;2023-04-25T11:32:09;96987.50;;;7.37;93.28
50774;BME280;36745;48.544;8.918;2023-04-25T11:35:30;96989.41;;;7.73;95.56
50774;BME280;36745;48.544;8.918;2023-04-25T11:38:50;96986.72;;;8.01;95.92
50774;BME280;36745;48.544;8.918;2023-04-25T11:42:11;96990.63;;;8.33;93.92
50774;BME280;36745;48.544;8.918;2023-04-25T11:45:31;96990.09;;;8.38;93.07
50774;BME280;36745;48.544;8.918;2023-04-25T11:48:50;96993.38;;;8.17;92.25
50774;BME280;36745;48.544;8.918;2023-04-25T11:52:10;96999.47;;;8.24;93.26
50774;BME280;36745;48.544;8.918;2023-04-25T11:55:30;96995.59;;;8.22;91.68
50774;BME280;36745;48.544;8.918;2023-04-25T12:02:25;97005.25;;;8.14;93.19
50774;BME280;36745;48.544;8.918;2023-04-25T12:05:45;96999.41;;;7.95;92.90
50774;BME280;36745;48.544;8.918;2023-04-25T12:09:08;97012.69;;;8.13;94.89
50774;BME280;36745;48.544;8.918;2023-04-25T12:12:32;97018.44;;;8.19;92.72
50774;BME280;36745;48.544;8.918;2023-04-25T12:15:57;97016.22;;;8.14;92.78
50774;BME280;36745;48.544;8.918;2023-04-25T12:19:19;97023.44;;;8.08;92.52
50774;BME280;36745;48.544;8.918;2023-04-25T12:22:47;97020.69;;;7.91;91.98
50774;BME280;36745;48.544;8.918;2023-04-25T12:26:07;97029.88;;;7.85;92.69
50774;BME280;36745;48.544;8.918;2023-04-25T12:29:28;97033.38;;;7.85;92.81
50774;BME280;36745;48.544;8.918;2023-04-25T12:32:48;97026.88;;;7.95;93.47
50774;BME280;36745;48.544;8.918;2023-04-25T12:36:08;97033.47;;;8.14;93.97
50774;BME280;36745;48.544;8.918;2023-04-25T12:39:27;97037.00;;;8.15;94.20
50774;BME280;36745;48.544;8.918;2023-04-25T12:42:47;97038.19;;;7.97;93.91
50774;BME280;36745;48.544;8.918;2023-04-25T12:46:07;97036.53;;;8.16;93.79
50774;BME280;36745;48.544;8.918;2023-04-25T12:49:27;97037.50;;;8.42;95.07
50774;BME280;36745;48.544;8.918;2023-04-25T12:52:47;97041.19;;;8.19;91.54
50774;BME280;36745;48.544;8.918;2023-04-25T12:56:10;97044.22;;;7.92;91.44
50774;BME280;36745;48.544;8.918;2023-04-25T12:59:30;97054.47;;;7.88;92.17
50774;BME280;36745;48.544;8.918;2023-04-25T13:02:50;97054.66;;;7.97;93.08
50774;BME280;36745;48.544;8.918;2023-04-25T13:06:10;97053.97;;;8.10;93.19
50774;BME280;36745;48.544;8.918;2023-04-25T13:09:30;97059.63;;;8.02;91.85
50774;BME280;36745;48.544;8.918;2023-04-25T13:12:50;97053.63;;;7.91;92.77
50774;BME280;36745;48.544;8.918;2023-04-25T13:16:10;97048.03;;;8.27;93.65
50774;BME280;36745;48.544;8.918;2023-04-25T13:19:30;97046.22;;;8.37;93.39
50774;BME280;36745;48.544;8.918;2023-04-25T13:22:50;97047.09;;;8.34;91.76
50774;BME280;36745;48.544;8.918;2023-04-25T13:26:10;97046.22;;;8.37;90.99
50774;BME280;36745;48.544;8.918;2023-04-25T13:29:30;97043.75;;;8.71;92.92
50774;BME280;36745;48.544;8.918;2023-04-25T13:32:49;97044.75;;;9.19;93.16
50774;BME280;36745;48.544;8.918;2023-04-25T13:36:09;97050.31;;;9.44;91.55
50774;BME280;36745;48.544;8.918;2023-04-25T13:39:29;97059.63;;;9.72;91.52
50774;BME280;36745;48.544;8.918;2023-04-25T13:42:49;97045.53;;;9.45;89.09
50774;BME280;36745;48.544;8.918;2023-04-25T13:46:10;97051.50;;;9.56;90.12
50774;BME280;36745;48.544;8.918;2023-04-25T13:49:31;97052.50;;;9.49;88.06
50774;BME280;36745;48.544;8.918;2023-04-25T13:52:50;97048.84;;;9.78;88.80
50774;BME280;36745;48.544;8.918;2023-04-25T13:56:10;97050.19;;;9.48;84.11
50774;BME280;36745;48.544;8.918;2023-04-25T13:59:31;97056.88;;;9.34;85.87
50774;BME280;36745;48.544;8.918;2023-04-25T14:02:51;97063.84;;;9.77;87.54
50774;BME280;36745;48.544;8.918;2023-04-25T14:06:11;97052.50;;;9.75;84.57
50774;BME280;36745;48.544;8.918;2023-04-25T14:09:31;97056.03;;;9.75;84.50
50774;BME280;36745;48.544;8.918;2023-04-25T14:12:51;97055.25;;;9.49;82.46
50774;BME280;36745;48.544;8.918;2023-04-25T14:16:11;97064.16;;;9.79;84.99
50774;BME280;36745;48.544;8.918;2023-04-25T14:19:31;97065.16;;;9.72;81.89
50774;BME280;36745;48.544;8.918;2023-04-25T14:22:51;97070.22;;;9.86;84.45
50774;BME280;36745;48.544;8.918;2023-04-25T14:26:11;97061.06;;;9.51;80.39
50774;BME280;36745;48.544;8.918;2023-04-25T14:29:31;97062.84;;;9.71;82.95
50774;BME280;36745;48.544;8.918;2023-04-25T14:32:51;97067.34;;;9.77;84.05
50774;BME280;36745;48.544;8.918;2023-04-25T14:36:11;97064.72;;;9.74;83.36
50774;BME280;36745;48.544;8.918;2023-04-25T14:39:31;97069.00;;;9.75;84.72
50774;BME280;36745;48.544;8.918;2023-04-25T14:42:51;97071.66;;;9.65;84.08
50774;BME280;36745;48.544;8.918;2023-04-25T14:46:11;97064.28;;;9.62;85.30
50774;BME280;36745;48.544;8.918;2023-04-25T14:49:32;97058.44;;;9.98;85.72
50774;BME280;36745;48.544;8.918;2023-04-25T14:52:52;97066.22;;;10.13;85.25
50774;BME280;36745;48.544;8.918;2023-04-25T14:56:12;97059.59;;;10.35;84.55
50774;BME280;36745;48.544;8.918;2023-04-25T14:59:32;97055.00;;;10.20;81.58
50774;BME280;36745;48.544;8.918;2023-04-25T15:02:51;97060.63;;;10.16;82.49
50774;BME280;36745;48.544;8.918;2023-04-25T15:06:11;97054.81;;;10.48;82.86
50774;BME280;36745;48.544;8.918;2023-04-25T15:09:31;97057.78;;;10.76;83.55
50774;BME280;36745;48.544;8.918;2023-04-25T15:12:51;97052.56;;;10.69;81.57
50774;BME280;36745;48.544;8.918;2023-04-25T15:16:12;97068.69;;;10.58;81.53
50774;BME280;36745;48.544;8.918;2023-04-25T15:19:32;97065.25;;;10.19;79.14
50774;BME280;36745;48.544;8.918;2023-04-25T15:22:52;97059.25;;;10.33;81.14
50774;BME280;36745;48.544;8.918;2023-04-25T15:26:12;97066.31;;;10.47;82.16
50774;BME280;36745;48.544;8.918;2023-04-25T15:29:32;97068.56;;;10.61;82.71
50774;BME280;36745;48.544;8.918;2023-04-25T15:32:52;97069.69;;;10.51;81.53
50774;BME280;36745;48.544;8.918;2023-04-25T15:36:11;97071.09;;;10.56;81.03
50774;BME280;36745;48.544;8.918;2023-04-25T15:39:31;97070.03;;;10.75;81.36
50774;BME280;36745;48.544;8.918;2023-04-25T15:42:51;97065.75;;;10.74;80.22
50774;BME280;36745;48.544;8.918;2023-04-25T15:46:11;97076.13;;;10.70;79.88
50774;BME280;36745;48.544;8.918;2023-04-25T15:49:31;97064.47;;;10.66;80.09
50774;BME280;36745;48.544;8.918;2023-04-25T15:52:51;97071.34;;;10.48;78.34
50774;BME280;36745;48.544;8.918;2023-04-25T15:56:11;97074.59;;;10.22;78.54
50774;BME280;36745;48.544;8.918;2023-04-25T15:59:30;97081.66;;;10.35;80.29
50774;BME280;36745;48.544;8.918;2023-04-25T16:02:50;97086.03;;;10.33;79.68
50774;BME280;36745;48.544;8.918;2023-04-25T16:06:11;97084.81;;;10.46;79.34
50774;BME280;36745;48.544;8.918;2023-04-25T16:09:30;97074.94;;;10.36;78.72
50774;BME280;36745;48.544;8.918;2023-04-25T16:12:50;97076.22;;;10.44;78.19
50774;BME280;36745;48.544;8.918;2023-04-25T16:16:10;97080.25;;;10.18;77.57
50774;BME280;36745;48.544;8.918;2023-04-25T16:19:30;97076.69;;;10.05;79.37
50774;BME280;36745;48.544;8.918;2023-04-25T16:22:50;97079.34;;;9.96;80.08
50774;BME280;36745;48.544;8.918;2023-04-25T16:26:09;97081.75;;;9.94;80.67
50774;BME280;36745;48.544;8.918;2023-04-25T16:29:29;97081.44;;;10.04;81.11
50774;BME280;36745;48.544;8.918;2023-04-25T16:32:49;97082.31;;;9.89;79.67
50774;BME280;36745;48.544;8.918;2023-04-25T16:36:09;97077.38;;;9.84;81.31
50774;BME280;36745;48.544;8.918;2023-04-25T16:39:31;97078.25;;;9.81;81.66
50774;BME280;36745;48.544;8.918;2023-04-25T16:42:50;97076.94;;;9.73;81.46
50774;BME280;36745;48.544;8.918;2023-04-25T16:46:10;97080.69;;;9.79;81.87
50774;BME280;36745;48.544;8.918;2023-04-25T16:49:31;97083.66;;;9.84;82.27
50774;BME280;36745;48.544;8.918;2023-04-25T16:52:51;97092.91;;;9.78;81.52
50774;BME280;36745;48.544;8.918;2023-04-25T16:56:11;97083.97;;;9.74;81.75
50774;BME280;36745;48.544;8.918;2023-04-25T16:59:30;97088.38;;;9.84;82.04
50774;BME280;36745;48.544;8.918;2023-04-25T17:02:50;97094.78;;;9.81;81.99
50774;BME280;36745;48.544;8.918;2023-04-25T17:06:10;97086.41;;;9.72;81.26
50774;BME280;36745;48.544;8.918;2023-04-25T17:09:30;97092.00;;;9.68;81.36
50774;BME280;36745;48.544;8.918;2023-04-25T17:12:51;97090.38;;;9.71;81.63
50774;BME280;36745;48.544;8.918;2023-04-25T17:16:11;97090.81;;;9.69;81.33
50774;BME280;36745;48.544;8.918;2023-04-25T17:19:34;97104.31;;;9.51;81.24
50774;BME280;36745;48.544;8.918;2023-04-25T17:22:54;97104.97;;;9.42;81.72
50774;BME280;36745;48.544;8.918;2023-04-25T17:26:15;97114.13;;;9.39;82.36
50774;BME280;36745;48.544;8.918;2023-04-25T17:29:35;97105.97;;;9.48;82.96
50774;BME280;36745;48.544;8.918;2023-04-25T17:32:55;97112.81;;;9.56;83.30
50774;BME280;36745;48.544;8.918;2023-04-25T17:36:15;97116.78;;;9.55;83.21
50774;BME280;36745;48.544;8.918;2023-04-25T17:39:35;97121.59;;;9.51;83.19
50774;BME280;36745;48.544;8.918;2023-04-25T17:42:55;97118.75;;;9.67;82.71
50774;BME280;36745;48.544;8.918;2023-04-25T17:46:15;97124.84;;;9.75;82.37
50774;BME280;36745;48.544;8.918;2023-04-25T17:49:34;97121.66;;;9.77;81.98
50774;BME280;36745;48.544;8.918;2023-04-25T17:52:54;97134.59;;;9.51;82.03
50774;BME280;36745;48.544;8.918;2023-04-25T17:56:14;97134.22;;;9.36;83.30
50774;BME280;36745;48.544;8.918;2023-04-25T17:59:34;97143.56;;;9.26;84.88
50774;BME280;36745;48.544;8.918;2023-04-25T18:02:55;97145.19;;;9.23;85.56
50774;BME280;36745;48.544;8.918;2023-04-25T18:06:15;97145.72;;;9.18;85.59
50774;BME280;36745;48.544;8.918;2023-04-25T18:09:35;97158.69;;;9.18;86.13